sensor_id;sensor_type;location;lat;lon;timestamp;P1;durP1;ratioP1;P2;durP2;ratioP2
70467;SDS011;57934;51.532;7.684;2022-12-18T00:01:14;12.27;;;7.47;;
70467;SDS011;57934;51.532;7.684;2022-12-18T00:03:46;12.82;;;7.43;;
70467;SDS011;57934;51.532;7.684;2022-12-18T00:06:13;12.52;;;7.38;;
70467;SDS011;57934;51.532;7.684;2022-12-18T00:08:40;12.70;;;7.10;;
70467;SDS011;57934;51.532;7.684;2022-12-18T00:11:08;10.18;;;7.07;;
70467;SDS011;57934;51.532;7.684;2022-12-18T00:13:36;13.00;;;7.35;;
70467;SDS011;57934;51.532;7.684;2022-12-18T00:16:03;16.30;;;7.72;;
70467;SDS011;57934;51.532;7.684;2022-12-18T00:18:30;15.48;;;7.15;;
70467;SDS011;57934;51.532;7.684;2022-12-18T00:20:59;12.18;;;7.10;;
70467;SDS011;57934;51.532;7.684;2022-12-18T00:23:27;12.57;;;6.38;;
70467;SDS011;57934;51.532;7.684;2022-12-18T00:25:54;14.02;;;6.53;;
70467;SDS011;57934;51.532;7.684;2022-12-18T00:28:24;8.80;;;5.88;;
70467;SDS011;57934;51.532;7.684;2022-12-18T00:30:50;15.45;;;6.93;;
70467;SDS011;57934;51.532;7.684;2022-12-18T00:33:17;14.60;;;8.10;;
70467;SDS011;57934;51.532;7.684;2022-12-18T00:35:44;15.57;;;8.25;;
70467;SDS011;57934;51.532;7.684;2022-12-18T00:38:10;14.43;;;7.65;;
70467;SDS011;57934;51.532;7.684;2022-12-18T00:40:35;15.00;;;7.50;;
70467;SDS011;57934;51.532;7.684;2022-12-18T00:43:01;12.15;;;7.30;;
70467;SDS011;57934;51.532;7.684;2022-12-18T00:45:28;13.73;;;8.05;;
70467;SDS011;57934;51.532;7.684;2022-12-18T00:47:56;17.60;;;8.02;;
70467;SDS011;57934;51.532;7.684;2022-12-18T00:50:23;15.23;;;7.80;;
70467;SDS011;57934;51.532;7.684;2022-12-18T00:52:50;19.50;;;8.25;;
70467;SDS011;57934;51.532;7.684;2022-12-18T00:55:17;13.13;;;8.25;;
70467;SDS011;57934;51.532;7.684;2022-12-18T00:57:44;18.67;;;8.32;;
70467;SDS011;57934;51.532;7.684;2022-12-18T01:00:12;16.00;;;7.80;;
70467;SDS011;57934;51.532;7.684;2022-12-18T01:02:40;14.95;;;7.85;;
70467;SDS011;57934;51.532;7.684;2022-12-18T01:05:07;15.52;;;7.53;;
70467;SDS011;57934;51.532;7.684;2022-12-18T01:07:34;13.60;;;8.38;;
70467;SDS011;57934;51.532;7.684;2022-12-18T01:10:02;12.13;;;7.45;;
70467;SDS011;57934;51.532;7.684;2022-12-18T01:12:29;15.55;;;8.15;;
70467;SDS011;57934;51.532;7.684;2022-12-18T01:14:55;16.88;;;8.25;;
70467;SDS011;57934;51.532;7.684;2022-12-18T01:17:21;15.57;;;8.52;;
70467;SDS011;57934;51.532;7.684;2022-12-18T01:19:47;13.85;;;7.68;;
70467;SDS011;57934;51.532;7.684;2022-12-18T01:22:13;18.73;;;8.40;;
70467;SDS011;57934;51.532;7.684;2022-12-18T01:24:39;17.00;;;8.55;;
70467;SDS011;57934;51.532;7.684;2022-12-18T01:27:05;16.05;;;8.77;;
70467;SDS011;57934;51.532;7.684;2022-12-18T01:29:31;17.25;;;8.32;;
70467;SDS011;57934;51.532;7.684;2022-12-18T01:31:57;19.67;;;8.65;;
70467;SDS011;57934;51.532;7.684;2022-12-18T01:34:23;19.33;;;9.50;;
70467;SDS011;57934;51.532;7.684;2022-12-18T01:36:50;20.45;;;8.70;;
70467;SDS011;57934;51.532;7.684;2022-12-18T01:39:18;17.48;;;8.77;;
70467;SDS011;57934;51.532;7.684;2022-12-18T01:41:44;16.60;;;8.10;;
70467;SDS011;57934;51.532;7.684;2022-12-18T01:47:15;13.48;;;7.90;;
70467;SDS011;57934;51.532;7.684;2022-12-18T01:49:45;16.58;;;7.90;;
70467;SDS011;57934;51.532;7.684;2022-12-18T01:52:11;14.45;;;7.28;;
70467;SDS011;57934;51.532;7.684;2022-12-18T01:54:38;17.13;;;7.30;;
70467;SDS011;57934;51.532;7.684;2022-12-18T01:57:04;14.35;;;7.22;;
70467;SDS011;57934;51.532;7.684;2022-12-18T01:59:31;15.57;;;7.00;;
70467;SDS011;57934;51.532;7.684;2022-12-18T02:01:59;15.68;;;7.47;;
70467;SDS011;57934;51.532;7.684;2022-12-18T02:04:26;12.82;;;7.35;;
70467;SDS011;57934;51.532;7.684;2022-12-18T02:09:51;12.88;;;7.30;;
70467;SDS011;57934;51.532;7.684;2022-12-18T02:12:25;15.10;;;6.80;;
70467;SDS011;57934;51.532;7.684;2022-12-18T02:17:56;12.60;;;6.53;;
70467;SDS011;57934;51.532;7.684;2022-12-18T02:20:33;9.45;;;5.85;;
70467;SDS011;57934;51.532;7.684;2022-12-18T02:29:04;12.77;;;6.65;;
70467;SDS011;57934;51.532;7.684;2022-12-18T02:31:36;10.33;;;5.97;;
70467;SDS011;57934;51.532;7.684;2022-12-18T02:34:09;12.48;;;6.10;;
70467;SDS011;57934;51.532;7.684;2022-12-18T02:36:38;10.90;;;6.55;;
70467;SDS011;57934;51.532;7.684;2022-12-18T02:39:07;12.90;;;6.07;;
70467;SDS011;57934;51.532;7.684;2022-12-18T02:41:41;10.05;;;5.53;;
70467;SDS011;57934;51.532;7.684;2022-12-18T02:44:08;14.68;;;6.55;;
70467;SDS011;57934;51.532;7.684;2022-12-18T02:46:38;11.02;;;6.10;;
70467;SDS011;57934;51.532;7.684;2022-12-18T02:49:32;9.80;;;5.82;;
70467;SDS011;57934;51.532;7.684;2022-12-18T02:57:50;11.38;;;6.45;;
70467;SDS011;57934;51.532;7.684;2022-12-18T03:03:24;11.13;;;6.30;;
70467;SDS011;57934;51.532;7.684;2022-12-18T03:06:00;13.38;;;6.40;;
70467;SDS011;57934;51.532;7.684;2022-12-18T03:08:30;11.48;;;6.18;;
70467;SDS011;57934;51.532;7.684;2022-12-18T03:11:02;13.10;;;6.18;;
70467;SDS011;57934;51.532;7.684;2022-12-18T03:13:33;13.50;;;6.43;;
70467;SDS011;57934;51.532;7.684;2022-12-18T03:16:03;13.95;;;6.38;;
70467;SDS011;57934;51.532;7.684;2022-12-18T03:18:34;9.38;;;5.35;;
70467;SDS011;57934;51.532;7.684;2022-12-18T03:21:04;9.02;;;5.57;;
70467;SDS011;57934;51.532;7.684;2022-12-18T03:23:36;12.25;;;5.43;;
70467;SDS011;57934;51.532;7.684;2022-12-18T03:26:09;11.63;;;4.27;;
70467;SDS011;57934;51.532;7.684;2022-12-18T03:28:42;7.25;;;4.13;;
70467;SDS011;57934;51.532;7.684;2022-12-18T03:31:13;7.15;;;4.82;;
70467;SDS011;57934;51.532;7.684;2022-12-18T03:33:47;6.78;;;3.95;;
70467;SDS011;57934;51.532;7.684;2022-12-18T03:36:18;8.85;;;4.32;;
70467;SDS011;57934;51.532;7.684;2022-12-18T03:38:44;8.10;;;4.03;;
70467;SDS011;57934;51.532;7.684;2022-12-18T03:41:31;7.68;;;5.05;;
70467;SDS011;57934;51.532;7.684;2022-12-18T03:47:13;10.77;;;6.15;;
70467;SDS011;57934;51.532;7.684;2022-12-18T03:49:59;10.35;;;5.97;;
70467;SDS011;57934;51.532;7.684;2022-12-18T03:55:12;9.00;;;4.38;;
70467;SDS011;57934;51.532;7.684;2022-12-18T03:57:39;9.38;;;4.68;;
70467;SDS011;57934;51.532;7.684;2022-12-18T04:00:12;7.63;;;5.20;;
70467;SDS011;57934;51.532;7.684;2022-12-18T04:02:41;7.10;;;4.97;;
70467;SDS011;57934;51.532;7.684;2022-12-18T04:05:13;8.07;;;4.77;;
70467;SDS011;57934;51.532;7.684;2022-12-18T04:07:41;6.50;;;3.90;;
70467;SDS011;57934;51.532;7.684;2022-12-18T04:10:10;7.75;;;4.30;;
70467;SDS011;57934;51.532;7.684;2022-12-18T04:12:38;9.32;;;4.45;;
70467;SDS011;57934;51.532;7.684;2022-12-18T04:15:05;11.10;;;5.72;;
70467;SDS011;57934;51.532;7.684;2022-12-18T04:17:31;7.82;;;4.70;;
70467;SDS011;57934;51.532;7.684;2022-12-18T04:19:57;10.45;;;5.28;;
70467;SDS011;57934;51.532;7.684;2022-12-18T04:22:24;10.93;;;5.95;;
70467;SDS011;57934;51.532;7.684;2022-12-18T04:24:56;10.80;;;5.00;;
70467;SDS011;57934;51.532;7.684;2022-12-18T04:27:29;8.65;;;4.97;;
70467;SDS011;57934;51.532;7.684;2022-12-18T04:29:57;12.27;;;6.00;;
70467;SDS011;57934;51.532;7.684;2022-12-18T04:32:23;11.07;;;5.38;;
70467;SDS011;57934;51.532;7.684;2022-12-18T04:34:49;6.78;;;4.20;;
70467;SDS011;57934;51.532;7.684;2022-12-18T04:37:16;7.47;;;4.13;;
70467;SDS011;57934;51.532;7.684;2022-12-18T04:39:43;7.57;;;3.58;;
70467;SDS011;57934;51.532;7.684;2022-12-18T04:42:16;7.07;;;3.78;;
70467;SDS011;57934;51.532;7.684;2022-12-18T04:44:42;6.03;;;3.85;;
70467;SDS011;57934;51.532;7.684;2022-12-18T04:47:07;6.75;;;3.92;;
70467;SDS011;57934;51.532;7.684;2022-12-18T04:49:33;6.72;;;3.92;;
70467;SDS011;57934;51.532;7.684;2022-12-18T04:51:59;7.60;;;3.63;;
70467;SDS011;57934;51.532;7.684;2022-12-18T04:54:25;9.02;;;4.90;;
70467;SDS011;57934;51.532;7.684;2022-12-18T04:56:51;13.25;;;6.68;;
70467;SDS011;57934;51.532;7.684;2022-12-18T04:59:17;12.05;;;7.20;;
70467;SDS011;57934;51.532;7.684;2022-12-18T05:01:43;9.05;;;5.32;;
70467;SDS011;57934;51.532;7.684;2022-12-18T05:04:09;8.00;;;5.07;;
70467;SDS011;57934;51.532;7.684;2022-12-18T05:06:35;11.40;;;5.70;;
70467;SDS011;57934;51.532;7.684;2022-12-18T05:09:01;8.95;;;5.18;;
70467;SDS011;57934;51.532;7.684;2022-12-18T05:11:27;7.05;;;5.07;;
70467;SDS011;57934;51.532;7.684;2022-12-18T05:13:53;7.68;;;4.30;;
70467;SDS011;57934;51.532;7.684;2022-12-18T05:16:19;7.93;;;4.00;;
70467;SDS011;57934;51.532;7.684;2022-12-18T05:18:45;4.43;;;2.63;;
70467;SDS011;57934;51.532;7.684;2022-12-18T05:21:11;4.15;;;2.90;;
70467;SDS011;57934;51.532;7.684;2022-12-18T05:23:37;5.13;;;2.97;;
70467;SDS011;57934;51.532;7.684;2022-12-18T05:26:04;7.55;;;3.28;;
70467;SDS011;57934;51.532;7.684;2022-12-18T05:28:31;5.15;;;2.83;;
70467;SDS011;57934;51.532;7.684;2022-12-18T05:30:59;6.63;;;3.00;;
70467;SDS011;57934;51.532;7.684;2022-12-18T05:33:26;7.25;;;3.63;;
70467;SDS011;57934;51.532;7.684;2022-12-18T05:35:56;5.68;;;2.92;;
70467;SDS011;57934;51.532;7.684;2022-12-18T05:38:24;5.75;;;3.17;;
70467;SDS011;57934;51.532;7.684;2022-12-18T05:40:52;4.00;;;2.67;;
70467;SDS011;57934;51.532;7.684;2022-12-18T05:43:19;6.07;;;3.35;;
70467;SDS011;57934;51.532;7.684;2022-12-18T05:45:47;5.32;;;2.72;;
70467;SDS011;57934;51.532;7.684;2022-12-18T05:48:13;6.78;;;3.60;;
70467;SDS011;57934;51.532;7.684;2022-12-18T05:50:40;6.95;;;3.63;;
70467;SDS011;57934;51.532;7.684;2022-12-18T05:53:08;6.20;;;3.30;;
70467;SDS011;57934;51.532;7.684;2022-12-18T05:55:34;5.30;;;3.25;;
70467;SDS011;57934;51.532;7.684;2022-12-18T05:58:01;4.80;;;3.35;;
70467;SDS011;57934;51.532;7.684;2022-12-18T06:00:28;5.30;;;3.05;;
70467;SDS011;57934;51.532;7.684;2022-12-18T06:02:54;6.18;;;3.78;;
70467;SDS011;57934;51.532;7.684;2022-12-18T06:05:20;5.60;;;3.38;;
70467;SDS011;57934;51.532;7.684;2022-12-18T06:07:46;5.65;;;3.30;;
70467;SDS011;57934;51.532;7.684;2022-12-18T06:10:12;8.23;;;3.33;;
70467;SDS011;57934;51.532;7.684;2022-12-18T06:12:38;6.47;;;3.92;;
70467;SDS011;57934;51.532;7.684;2022-12-18T06:15:04;5.55;;;3.35;;
70467;SDS011;57934;51.532;7.684;2022-12-18T06:17:31;7.22;;;3.42;;
70467;SDS011;57934;51.532;7.684;2022-12-18T06:19:57;7.03;;;4.00;;
70467;SDS011;57934;51.532;7.684;2022-12-18T06:22:24;6.35;;;3.20;;
70467;SDS011;57934;51.532;7.684;2022-12-18T06:24:50;5.15;;;3.35;;
70467;SDS011;57934;51.532;7.684;2022-12-18T06:27:16;6.97;;;3.30;;
70467;SDS011;57934;51.532;7.684;2022-12-18T06:29:42;6.25;;;3.42;;
70467;SDS011;57934;51.532;7.684;2022-12-18T06:32:08;5.05;;;2.78;;
70467;SDS011;57934;51.532;7.684;2022-12-18T06:34:34;5.72;;;3.60;;
70467;SDS011;57934;51.532;7.684;2022-12-18T06:37:02;5.63;;;3.20;;
70467;SDS011;57934;51.532;7.684;2022-12-18T06:39:28;6.00;;;3.33;;
70467;SDS011;57934;51.532;7.684;2022-12-18T06:41:54;4.50;;;2.90;;
70467;SDS011;57934;51.532;7.684;2022-12-18T06:44:20;6.82;;;3.60;;
70467;SDS011;57934;51.532;7.684;2022-12-18T06:46:46;6.97;;;3.60;;
70467;SDS011;57934;51.532;7.684;2022-12-18T06:49:12;3.83;;;3.00;;
70467;SDS011;57934;51.532;7.684;2022-12-18T06:51:38;4.68;;;3.33;;
70467;SDS011;57934;51.532;7.684;2022-12-18T06:54:04;6.00;;;3.15;;
70467;SDS011;57934;51.532;7.684;2022-12-18T06:56:30;7.40;;;3.50;;
70467;SDS011;57934;51.532;7.684;2022-12-18T06:58:56;5.75;;;3.60;;
70467;SDS011;57934;51.532;7.684;2022-12-18T07:01:22;6.38;;;3.55;;
70467;SDS011;57934;51.532;7.684;2022-12-18T07:03:52;5.00;;;3.10;;
70467;SDS011;57934;51.532;7.684;2022-12-18T07:06:22;7.40;;;3.00;;
70467;SDS011;57934;51.532;7.684;2022-12-18T07:08:49;7.82;;;3.30;;
70467;SDS011;57934;51.532;7.684;2022-12-18T07:11:16;6.32;;;3.58;;
70467;SDS011;57934;51.532;7.684;2022-12-18T07:13:43;6.90;;;3.72;;
70467;SDS011;57934;51.532;7.684;2022-12-18T07:16:13;6.30;;;3.60;;
70467;SDS011;57934;51.532;7.684;2022-12-18T07:18:41;7.15;;;3.97;;
70467;SDS011;57934;51.532;7.684;2022-12-18T07:21:09;8.45;;;4.05;;
70467;SDS011;57934;51.532;7.684;2022-12-18T07:23:37;10.13;;;3.42;;
70467;SDS011;57934;51.532;7.684;2022-12-18T07:26:04;4.72;;;2.80;;
70467;SDS011;57934;51.532;7.684;2022-12-18T07:28:36;5.10;;;3.17;;
70467;SDS011;57934;51.532;7.684;2022-12-18T07:31:03;5.70;;;3.08;;
70467;SDS011;57934;51.532;7.684;2022-12-18T07:33:32;6.22;;;2.97;;
70467;SDS011;57934;51.532;7.684;2022-12-18T07:36:02;5.47;;;3.17;;
70467;SDS011;57934;51.532;7.684;2022-12-18T07:38:30;5.32;;;2.55;;
70467;SDS011;57934;51.532;7.684;2022-12-18T07:41:01;5.45;;;3.08;;
70467;SDS011;57934;51.532;7.684;2022-12-18T07:43:27;4.68;;;2.83;;
70467;SDS011;57934;51.532;7.684;2022-12-18T07:45:54;6.38;;;3.85;;
70467;SDS011;57934;51.532;7.684;2022-12-18T07:48:20;5.55;;;3.50;;
70467;SDS011;57934;51.532;7.684;2022-12-18T07:50:46;10.77;;;4.15;;
70467;SDS011;57934;51.532;7.684;2022-12-18T07:53:12;6.47;;;3.55;;
70467;SDS011;57934;51.532;7.684;2022-12-18T07:55:38;9.70;;;4.50;;
70467;SDS011;57934;51.532;7.684;2022-12-18T07:58:04;9.18;;;5.03;;
70467;SDS011;57934;51.532;7.684;2022-12-18T08:00:30;8.85;;;4.95;;
70467;SDS011;57934;51.532;7.684;2022-12-18T08:02:56;9.13;;;5.35;;
70467;SDS011;57934;51.532;7.684;2022-12-18T08:05:22;9.25;;;5.07;;
70467;SDS011;57934;51.532;7.684;2022-12-18T08:07:49;9.30;;;5.07;;
70467;SDS011;57934;51.532;7.684;2022-12-18T08:10:15;10.30;;;5.30;;
70467;SDS011;57934;51.532;7.684;2022-12-18T08:12:41;9.57;;;5.65;;
70467;SDS011;57934;51.532;7.684;2022-12-18T08:15:07;10.52;;;6.00;;
70467;SDS011;57934;51.532;7.684;2022-12-18T08:17:33;11.35;;;5.55;;
70467;SDS011;57934;51.532;7.684;2022-12-18T08:19:59;7.07;;;4.57;;
70467;SDS011;57934;51.532;7.684;2022-12-18T08:22:25;9.80;;;5.93;;
70467;SDS011;57934;51.532;7.684;2022-12-18T08:24:51;10.38;;;5.97;;
70467;SDS011;57934;51.532;7.684;2022-12-18T08:27:17;9.25;;;5.07;;
70467;SDS011;57934;51.532;7.684;2022-12-18T08:29:43;10.57;;;5.35;;
70467;SDS011;57934;51.532;7.684;2022-12-18T08:32:09;10.30;;;5.97;;
70467;SDS011;57934;51.532;7.684;2022-12-18T08:34:35;11.60;;;6.30;;
70467;SDS011;57934;51.532;7.684;2022-12-18T08:37:01;10.60;;;5.75;;
70467;SDS011;57934;51.532;7.684;2022-12-18T08:39:27;11.38;;;5.93;;
70467;SDS011;57934;51.532;7.684;2022-12-18T08:41:53;9.85;;;4.85;;
70467;SDS011;57934;51.532;7.684;2022-12-18T08:44:38;8.55;;;5.22;;
70467;SDS011;57934;51.532;7.684;2022-12-18T08:47:07;8.75;;;5.63;;
70467;SDS011;57934;51.532;7.684;2022-12-18T08:49:33;9.63;;;6.63;;
70467;SDS011;57934;51.532;7.684;2022-12-18T08:52:00;9.60;;;6.00;;
70467;SDS011;57934;51.532;7.684;2022-12-18T08:54:28;9.50;;;5.20;;
70467;SDS011;57934;51.532;7.684;2022-12-18T08:56:54;9.13;;;5.45;;
70467;SDS011;57934;51.532;7.684;2022-12-18T08:59:20;11.48;;;5.78;;
70467;SDS011;57934;51.532;7.684;2022-12-18T09:01:46;12.07;;;5.50;;
70467;SDS011;57934;51.532;7.684;2022-12-18T09:04:13;10.43;;;5.63;;
70467;SDS011;57934;51.532;7.684;2022-12-18T09:06:39;10.57;;;5.93;;
70467;SDS011;57934;51.532;7.684;2022-12-18T09:09:06;8.70;;;5.15;;
70467;SDS011;57934;51.532;7.684;2022-12-18T09:11:32;12.25;;;5.40;;
70467;SDS011;57934;51.532;7.684;2022-12-18T09:13:59;10.85;;;5.85;;
70467;SDS011;57934;51.532;7.684;2022-12-18T09:16:27;8.70;;;5.25;;
70467;SDS011;57934;51.532;7.684;2022-12-18T09:18:57;10.45;;;5.38;;
70467;SDS011;57934;51.532;7.684;2022-12-18T09:21:28;8.35;;;4.75;;
70467;SDS011;57934;51.532;7.684;2022-12-18T09:23:56;7.05;;;4.65;;
70467;SDS011;57934;51.532;7.684;2022-12-18T09:26:22;7.47;;;5.13;;
70467;SDS011;57934;51.532;7.684;2022-12-18T09:28:49;10.18;;;5.53;;
70467;SDS011;57934;51.532;7.684;2022-12-18T09:31:17;5.72;;;3.58;;
70467;SDS011;57934;51.532;7.684;2022-12-18T09:33:44;8.23;;;4.68;;
70467;SDS011;57934;51.532;7.684;2022-12-18T09:36:11;3.95;;;3.00;;
70467;SDS011;57934;51.532;7.684;2022-12-18T09:38:39;5.72;;;2.92;;
70467;SDS011;57934;51.532;7.684;2022-12-18T09:44:09;4.50;;;2.70;;
70467;SDS011;57934;51.532;7.684;2022-12-18T09:49:48;5.38;;;3.00;;
70467;SDS011;57934;51.532;7.684;2022-12-18T09:52:29;5.60;;;3.00;;
70467;SDS011;57934;51.532;7.684;2022-12-18T09:55:05;3.70;;;2.70;;
70467;SDS011;57934;51.532;7.684;2022-12-18T09:57:39;4.57;;;2.45;;
70467;SDS011;57934;51.532;7.684;2022-12-18T10:02:40;3.45;;;2.38;;
70467;SDS011;57934;51.532;7.684;2022-12-18T10:05:07;6.05;;;2.42;;
70467;SDS011;57934;51.532;7.684;2022-12-18T10:07:42;7.47;;;2.70;;
70467;SDS011;57934;51.532;7.684;2022-12-18T10:10:38;9.07;;;2.40;;
70467;SDS011;57934;51.532;7.684;2022-12-18T10:13:19;7.07;;;2.83;;
70467;SDS011;57934;51.532;7.684;2022-12-18T10:24:29;7.07;;;4.60;;
70467;SDS011;57934;51.532;7.684;2022-12-18T10:26:59;8.43;;;4.75;;
70467;SDS011;57934;51.532;7.684;2022-12-18T10:29:35;8.75;;;5.35;;
70467;SDS011;57934;51.532;7.684;2022-12-18T10:32:01;9.60;;;5.75;;
70467;SDS011;57934;51.532;7.684;2022-12-18T10:34:27;11.10;;;5.57;;
70467;SDS011;57934;51.532;7.684;2022-12-18T10:36:53;6.93;;;4.90;;
70467;SDS011;57934;51.532;7.684;2022-12-18T10:39:20;6.40;;;3.83;;
70467;SDS011;57934;51.532;7.684;2022-12-18T10:41:49;6.63;;;3.58;;
70467;SDS011;57934;51.532;7.684;2022-12-18T10:44:22;5.28;;;3.22;;
70467;SDS011;57934;51.532;7.684;2022-12-18T10:46:50;7.43;;;2.97;;
70467;SDS011;57934;51.532;7.684;2022-12-18T10:49:22;4.53;;;3.20;;
70467;SDS011;57934;51.532;7.684;2022-12-18T10:52:03;6.97;;;3.13;;
70467;SDS011;57934;51.532;7.684;2022-12-18T10:54:39;9.13;;;3.25;;
70467;SDS011;57934;51.532;7.684;2022-12-18T10:57:15;4.68;;;3.10;;
70467;SDS011;57934;51.532;7.684;2022-12-18T10:59:56;8.02;;;3.05;;
70467;SDS011;57934;51.532;7.684;2022-12-18T11:02:28;13.00;;;3.53;;
70467;SDS011;57934;51.532;7.684;2022-12-18T11:05:00;7.93;;;2.78;;
70467;SDS011;57934;51.532;7.684;2022-12-18T11:07:26;7.32;;;3.35;;
70467;SDS011;57934;51.532;7.684;2022-12-18T11:10:19;6.30;;;3.33;;
70467;SDS011;57934;51.532;7.684;2022-12-18T11:12:46;6.35;;;3.90;;
70467;SDS011;57934;51.532;7.684;2022-12-18T11:15:15;4.32;;;3.17;;
70467;SDS011;57934;51.532;7.684;2022-12-18T11:17:45;4.38;;;3.25;;
70467;SDS011;57934;51.532;7.684;2022-12-18T11:23:01;8.57;;;4.65;;
70467;SDS011;57934;51.532;7.684;2022-12-18T11:25:30;6.38;;;3.95;;
70467;SDS011;57934;51.532;7.684;2022-12-18T11:27:58;5.97;;;3.20;;
70467;SDS011;57934;51.532;7.684;2022-12-18T11:30:30;5.47;;;3.13;;
70467;SDS011;57934;51.532;7.684;2022-12-18T11:33:10;6.10;;;2.63;;
70467;SDS011;57934;51.532;7.684;2022-12-18T11:40:55;5.57;;;2.90;;
70467;SDS011;57934;51.532;7.684;2022-12-18T11:43:31;4.57;;;2.97;;
70467;SDS011;57934;51.532;7.684;2022-12-18T11:46:08;5.50;;;2.75;;
70467;SDS011;57934;51.532;7.684;2022-12-18T11:48:54;5.22;;;2.88;;
70467;SDS011;57934;51.532;7.684;2022-12-18T11:51:38;5.60;;;2.42;;
70467;SDS011;57934;51.532;7.684;2022-12-18T11:54:17;4.07;;;2.35;;
70467;SDS011;57934;51.532;7.684;2022-12-18T11:56:57;3.38;;;2.20;;
70467;SDS011;57934;51.532;7.684;2022-12-18T11:59:40;4.88;;;2.40;;
70467;SDS011;57934;51.532;7.684;2022-12-18T12:11:13;2.72;;;2.17;;
70467;SDS011;57934;51.532;7.684;2022-12-18T12:14:05;4.43;;;2.70;;
70467;SDS011;57934;51.532;7.684;2022-12-18T12:25:01;5.22;;;2.72;;
70467;SDS011;57934;51.532;7.684;2022-12-18T12:27:43;6.47;;;5.88;;
70467;SDS011;57934;51.532;7.684;2022-12-18T12:38:39;12.88;;;7.82;;
70467;SDS011;57934;51.532;7.684;2022-12-18T12:41:12;13.65;;;7.50;;
70467;SDS011;57934;51.532;7.684;2022-12-18T12:44:02;12.48;;;7.38;;
70467;SDS011;57934;51.532;7.684;2022-12-18T12:46:34;15.65;;;7.63;;
70467;SDS011;57934;51.532;7.684;2022-12-18T12:49:03;10.18;;;6.75;;
70467;SDS011;57934;51.532;7.684;2022-12-18T12:51:40;14.90;;;8.10;;
70467;SDS011;57934;51.532;7.684;2022-12-18T12:54:16;16.92;;;8.27;;
70467;SDS011;57934;51.532;7.684;2022-12-18T12:56:50;17.00;;;8.13;;
70467;SDS011;57934;51.532;7.684;2022-12-18T12:59:31;12.77;;;8.27;;
70467;SDS011;57934;51.532;7.684;2022-12-18T13:02:15;17.08;;;8.55;;
70467;SDS011;57934;51.532;7.684;2022-12-18T13:07:37;16.73;;;8.90;;
70467;SDS011;57934;51.532;7.684;2022-12-18T13:15:48;18.97;;;9.47;;
70467;SDS011;57934;51.532;7.684;2022-12-18T13:18:29;16.80;;;9.85;;
70467;SDS011;57934;51.532;7.684;2022-12-18T13:25:51;15.95;;;9.30;;
70467;SDS011;57934;51.532;7.684;2022-12-18T13:31:12;14.10;;;8.65;;
70467;SDS011;57934;51.532;7.684;2022-12-18T13:36:15;14.10;;;9.00;;
70467;SDS011;57934;51.532;7.684;2022-12-18T13:39:08;17.00;;;9.70;;
70467;SDS011;57934;51.532;7.684;2022-12-18T13:41:36;20.63;;;10.00;;
70467;SDS011;57934;51.532;7.684;2022-12-18T13:44:13;22.08;;;10.35;;
70467;SDS011;57934;51.532;7.684;2022-12-18T13:46:50;17.98;;;10.35;;
70467;SDS011;57934;51.532;7.684;2022-12-18T13:52:14;17.10;;;9.63;;
70467;SDS011;57934;51.532;7.684;2022-12-18T13:54:43;14.98;;;9.25;;
70467;SDS011;57934;51.532;7.684;2022-12-18T13:57:29;17.33;;;10.57;;
70467;SDS011;57934;51.532;7.684;2022-12-18T14:00:42;16.15;;;10.00;;
70467;SDS011;57934;51.532;7.684;2022-12-18T14:02:51;15.18;;;9.80;;
70467;SDS011;57934;51.532;7.684;2022-12-18T14:05:24;16.30;;;10.52;;
70467;SDS011;57934;51.532;7.684;2022-12-18T14:07:51;19.48;;;11.20;;
70467;SDS011;57934;51.532;7.684;2022-12-18T14:10:18;20.40;;;11.57;;
70467;SDS011;57934;51.532;7.684;2022-12-18T14:12:45;21.38;;;11.80;;
70467;SDS011;57934;51.532;7.684;2022-12-18T14:17:59;21.75;;;12.45;;
70467;SDS011;57934;51.532;7.684;2022-12-18T14:20:35;21.58;;;10.73;;
70467;SDS011;57934;51.532;7.684;2022-12-18T14:23:01;22.02;;;12.35;;
70467;SDS011;57934;51.532;7.684;2022-12-18T14:25:27;18.10;;;11.35;;
70467;SDS011;57934;51.532;7.684;2022-12-18T14:35:34;10.00;;;3.80;;
70467;SDS011;57934;51.532;7.684;2022-12-18T14:40:41;5.72;;;3.58;;
70467;SDS011;57934;51.532;7.684;2022-12-18T14:43:11;6.72;;;3.60;;
70467;SDS011;57934;51.532;7.684;2022-12-18T14:45:38;8.80;;;3.83;;
70467;SDS011;57934;51.532;7.684;2022-12-18T14:48:07;6.13;;;3.70;;
70467;SDS011;57934;51.532;7.684;2022-12-18T14:50:45;7.60;;;4.25;;
70467;SDS011;57934;51.532;7.684;2022-12-18T14:53:22;10.90;;;4.10;;
70467;SDS011;57934;51.532;7.684;2022-12-18T14:55:54;6.30;;;4.13;;
70467;SDS011;57934;51.532;7.684;2022-12-18T14:58:20;6.68;;;4.45;;
70467;SDS011;57934;51.532;7.684;2022-12-18T15:00:47;8.18;;;4.05;;
70467;SDS011;57934;51.532;7.684;2022-12-18T15:03:15;5.95;;;4.03;;
70467;SDS011;57934;51.532;7.684;2022-12-18T15:05:46;7.53;;;4.47;;
70467;SDS011;57934;51.532;7.684;2022-12-18T15:11:02;8.35;;;4.63;;
70467;SDS011;57934;51.532;7.684;2022-12-18T15:13:28;8.32;;;4.93;;
70467;SDS011;57934;51.532;7.684;2022-12-18T15:15:55;7.88;;;4.72;;
70467;SDS011;57934;51.532;7.684;2022-12-18T15:18:35;8.13;;;4.90;;
70467;SDS011;57934;51.532;7.684;2022-12-18T15:21:08;10.70;;;5.40;;
70467;SDS011;57934;51.532;7.684;2022-12-18T15:23:37;11.68;;;6.05;;
70467;SDS011;57934;51.532;7.684;2022-12-18T15:26:10;10.20;;;6.00;;
70467;SDS011;57934;51.532;7.684;2022-12-18T15:36:17;11.48;;;5.78;;
70467;SDS011;57934;51.532;7.684;2022-12-18T15:38:48;9.00;;;5.90;;
70467;SDS011;57934;51.532;7.684;2022-12-18T15:41:15;10.50;;;6.20;;
70467;SDS011;57934;51.532;7.684;2022-12-18T15:43:43;11.65;;;5.93;;
70467;SDS011;57934;51.532;7.684;2022-12-18T15:46:15;13.23;;;5.72;;
70467;SDS011;57934;51.532;7.684;2022-12-18T15:48:44;10.35;;;5.82;;
70467;SDS011;57934;51.532;7.684;2022-12-18T15:51:23;11.23;;;6.25;;
70467;SDS011;57934;51.532;7.684;2022-12-18T15:53:50;13.27;;;6.47;;
70467;SDS011;57934;51.532;7.684;2022-12-18T15:56:19;10.43;;;6.53;;
70467;SDS011;57934;51.532;7.684;2022-12-18T15:59:22;11.38;;;7.00;;
70467;SDS011;57934;51.532;7.684;2022-12-18T16:01:49;12.07;;;6.85;;
70467;SDS011;57934;51.532;7.684;2022-12-18T16:04:17;11.75;;;6.88;;
70467;SDS011;57934;51.532;7.684;2022-12-18T16:06:48;10.70;;;6.80;;
70467;SDS011;57934;51.532;7.684;2022-12-18T16:09:14;11.40;;;6.65;;
70467;SDS011;57934;51.532;7.684;2022-12-18T16:11:41;11.15;;;6.63;;
70467;SDS011;57934;51.532;7.684;2022-12-18T16:14:22;13.20;;;6.97;;
70467;SDS011;57934;51.532;7.684;2022-12-18T16:16:54;11.48;;;6.63;;
70467;SDS011;57934;51.532;7.684;2022-12-18T16:19:21;14.80;;;7.70;;
70467;SDS011;57934;51.532;7.684;2022-12-18T16:21:48;14.18;;;7.72;;
70467;SDS011;57934;51.532;7.684;2022-12-18T16:24:16;16.23;;;8.55;;
70467;SDS011;57934;51.532;7.684;2022-12-18T16:26:44;15.43;;;8.25;;
70467;SDS011;57934;51.532;7.684;2022-12-18T16:29:10;16.55;;;8.43;;
70467;SDS011;57934;51.532;7.684;2022-12-18T16:31:37;13.40;;;7.65;;
70467;SDS011;57934;51.532;7.684;2022-12-18T16:34:37;16.75;;;8.07;;
70467;SDS011;57934;51.532;7.684;2022-12-18T16:36:57;12.52;;;7.57;;
70467;SDS011;57934;51.532;7.684;2022-12-18T16:39:25;15.48;;;8.32;;
70467;SDS011;57934;51.532;7.684;2022-12-18T16:41:51;13.80;;;7.90;;
70467;SDS011;57934;51.532;7.684;2022-12-18T16:44:17;15.68;;;8.52;;
70467;SDS011;57934;51.532;7.684;2022-12-18T16:46:43;15.57;;;8.13;;
70467;SDS011;57934;51.532;7.684;2022-12-18T16:49:14;17.50;;;8.73;;
70467;SDS011;57934;51.532;7.684;2022-12-18T16:51:41;14.85;;;8.18;;
70467;SDS011;57934;51.532;7.684;2022-12-18T16:54:08;21.45;;;8.68;;
70467;SDS011;57934;51.532;7.684;2022-12-18T16:56:34;14.13;;;8.32;;
70467;SDS011;57934;51.532;7.684;2022-12-18T16:59:00;16.42;;;8.68;;
70467;SDS011;57934;51.532;7.684;2022-12-18T17:01:28;17.25;;;8.98;;